Terminal Aerodrome Forecast
Issued by NWS

Home | Current Version | Previous Version | Text Only | Print | Product List | Glossary On
Versions: 1 2 3 4 5 6 7 8 9 10 11 12 13 14 15 16 17 18
000
FTPQ31 PGUM 281145
TAFGUM
TAF

TAF
PGSN 281145Z 2812/2912 06017G30KT 6SM -RA SCT015 SCT025 BKN110
      TEMPO 2812/2816 3SM SHRA BKN014
     FM281700 10018G28KT 6SM -RA SCT012 BKN030 OVC100
     FM282300 17013G20KT P6SM VCSH SCT012 SCT030 BKN120=

USA.gov is the U.S. government's official web portal to all federal, state and local government web resources and services.